Time;durP1;ratioP1;P1;durP2;ratioP2;P2;SDS_P1;SDS_P2;PMS_P1;PMS_P2;Temp;Humidity;BMP_temperature;BMP_pressure;BME280_temperature;BME280_humidity;BME280_pressure;Samples;Min_cycle;Max_cycle;Signal;HPM_P1;HPM_P2
2023/10/17 00:00:39;;;;;;;5.17;3.90;;;4.80;1.00;;;;;;5046119;28;20459;-84
2023/10/17 00:14:11;;;;;;;5.83;4.00;;;4.70;1.00;;;;;;5031267;28;20456;-85
2023/10/17 00:16:58;;;;;;;5.10;4.13;;;4.60;1.00;;;;;;5037416;28;20438;-85
2023/10/17 00:19:52;;;;;;;9.53;4.60;;;4.60;1.00;;;;;;5034164;28;20429;-85
2023/10/17 00:26:22;;;;;;;6.57;3.90;;;4.60;1.00;;;;;;5043673;28;20455;-85
2023/10/17 00:32:12;;;;;;;15.23;5.43;;;4.50;1.00;;;;;;5036485;28;20460;-76
2023/10/17 00:34:40;;;;;;;14.70;5.03;;;4.50;1.00;;;;;;5036214;28;20442;-73
2023/10/17 00:37:10;;;;;;;8.17;4.57;;;4.50;1.00;;;;;;5039021;28;20402;-73
2023/10/17 00:39:38;;;;;;;7.10;4.40;;;4.50;1.00;;;;;;5036674;28;20419;-73
2023/10/17 00:44:41;;;;;;;11.83;4.60;;;4.50;1.00;;;;;;5032997;28;20510;-73
2023/10/17 00:47:11;;;;;;;11.03;4.50;;;4.50;1.00;;;;;;5036271;28;20451;-73
2023/10/17 00:53:06;;;;;;;8.80;4.60;;;4.50;1.00;;;;;;5017199;28;20444;-85
2023/10/17 00:56:25;;;;;;;5.93;4.30;;;4.40;1.00;;;;;;5033734;28;20431;-85
2023/10/17 01:02:32;;;;;;;10.90;4.80;;;4.30;1.00;;;;;;5044576;28;20972;-85
2023/10/17 01:04:59;;;;;;;7.10;4.70;;;4.30;1.00;;;;;;5028346;28;21258;-73
2023/10/17 01:07:34;;;;;;;6.90;4.47;;;4.30;1.00;;;;;;5038726;28;20485;-73
2023/10/17 01:10:10;;;;;;;8.93;4.90;;;4.30;1.00;;;;;;5048223;28;20425;-73
2023/10/17 01:12:53;;;;;;;6.00;4.40;;;4.20;1.00;;;;;;5049574;28;20428;-73
2023/10/17 01:15:32;;;;;;;8.03;4.50;;;4.10;1.00;;;;;;5032738;28;20443;-73
2023/10/17 01:18:04;;;;;;;8.30;5.67;;;4.10;1.00;;;;;;5034050;28;20438;-73
2023/10/17 01:20:35;;;;;;;12.10;4.93;;;4.10;1.00;;;;;;5049276;28;20440;-73
2023/10/17 01:23:01;;;;;;;7.63;4.73;;;4.30;1.00;;;;;;5038284;28;20512;-73
2023/10/17 01:25:29;;;;;;;8.33;4.60;;;4.00;1.00;;;;;;5043641;28;20489;-73
2023/10/17 01:27:57;;;;;;;6.40;4.63;;;4.00;1.00;;;;;;5048617;28;20451;-73
2023/10/17 01:30:23;;;;;;;13.80;5.33;;;3.90;1.00;;;;;;5041619;28;20430;-73
2023/10/17 01:32:51;;;;;;;7.50;5.20;;;3.90;1.00;;;;;;5044941;28;20556;-73
2023/10/17 01:35:19;;;;;;;6.67;4.80;;;3.90;1.00;;;;;;5039564;28;20431;-73
2023/10/17 01:37:46;;;;;;;8.73;5.17;;;3.90;1.00;;;;;;5038350;28;20407;-73
2023/10/17 01:40:22;;;;;;;8.80;5.20;;;4.80;1.00;;;;;;5044895;28;20442;-73
2023/10/17 01:42:50;;;;;;;7.97;5.47;;;3.80;1.00;;;;;;5044159;28;20418;-73
2023/10/17 01:45:16;;;;;;;11.63;5.60;;;3.80;1.00;;;;;;5041424;28;20460;-73
2023/10/17 01:47:43;;;;;;;9.20;5.30;;;3.80;1.00;;;;;;5036501;28;20455;-73
2023/10/17 01:50:10;;;;;;;8.27;5.07;;;3.80;1.00;;;;;;5036222;28;20179;-73
2023/10/17 01:52:37;;;;;;;8.67;4.90;;;3.80;1.00;;;;;;5034309;28;20426;-73
2023/10/17 01:55:10;;;;;;;12.33;5.77;;;3.70;1.00;;;;;;5047270;28;20512;-73
2023/10/17 01:57:40;;;;;;;16.53;5.83;;;3.70;1.00;;;;;;5035182;28;20411;-73
2023/10/17 02:02:55;;;;;;;18.80;5.67;;;3.70;1.00;;;;;;5040076;28;20763;-73
2023/10/17 02:05:22;;;;;;;9.10;5.27;;;3.60;1.00;;;;;;5027365;28;20438;-73
2023/10/17 02:07:48;;;;;;;10.03;5.50;;;3.70;1.00;;;;;;5034426;28;20458;-73
2023/10/17 02:10:28;;;;;;;9.17;5.27;;;3.60;1.00;;;;;;5037847;28;20437;-73
2023/10/17 02:13:04;;;;;;;13.57;5.53;;;3.60;1.00;;;;;;5048346;28;20309;-73
2023/10/17 02:15:30;;;;;;;10.02;4.90;;;3.60;1.00;;;;;;5036407;28;20191;-73
2023/10/17 02:17:57;;;;;;;7.53;4.93;;;3.60;1.00;;;;;;5045233;28;20193;-73
2023/10/17 02:26:29;;;;;;;7.40;4.90;;;3.70;1.00;;;;;;5038555;28;20408;-85
2023/10/17 02:29:18;;;;;;;14.13;5.47;;;3.70;1.00;;;;;;5036453;28;20506;-85
2023/10/17 02:31:58;;;;;;;8.60;4.90;;;3.80;1.00;;;;;;5034949;28;20483;-85
2023/10/17 02:34:29;;;;;;;7.67;4.77;;;3.80;1.00;;;;;;5036561;28;20909;-73
2023/10/17 02:37:00;;;;;;;6.13;4.70;;;3.90;1.00;;;;;;5036259;28;20434;-73
2023/10/17 02:39:25;;;;;;;8.10;4.47;;;3.90;1.00;;;;;;5033585;28;20851;-73
2023/10/17 02:42:06;;;;;;;5.93;4.30;;;3.90;1.00;;;;;;5047362;28;20435;-73
2023/10/17 02:44:32;;;;;;;8.77;4.83;;;3.90;1.00;;;;;;5026646;28;20172;-73
2023/10/17 02:46:58;;;;;;;5.83;4.70;;;4.00;1.00;;;;;;5040219;28;20455;-73
2023/10/17 02:49:27;;;;;;;6.57;4.50;;;4.00;1.00;;;;;;5052534;28;20427;-73
2023/10/17 02:51:54;;;;;;;10.80;4.60;;;4.10;1.00;;;;;;5033697;28;20431;-73
2023/10/17 02:54:20;;;;;;;8.03;4.50;;;4.10;1.00;;;;;;5045021;28;20579;-73
2023/10/17 02:56:46;;;;;;;9.30;4.40;;;4.20;1.00;;;;;;5048735;28;20524;-73
2023/10/17 02:59:13;;;;;;;6.30;4.37;;;4.20;1.00;;;;;;5036459;28;20513;-73
2023/10/17 03:01:52;;;;;;;6.67;4.60;;;4.30;1.00;;;;;;5037082;28;20180;-73
2023/10/17 03:04:23;;;;;;;4.67;3.83;;;4.40;1.00;;;;;;5035131;28;20457;-73
2023/10/17 03:06:56;;;;;;;7.47;4.83;;;5.00;1.00;;;;;;5038342;28;20501;-73
2023/10/17 03:11:50;;;;;;;10.33;4.97;;;4.50;1.00;;;;;;5045709;28;20520;-73
2023/10/17 03:14:25;;;;;;;10.03;5.20;;;5.50;1.00;;;;;;5035712;28;20176;-73
2023/10/17 03:16:58;;;;;;;6.30;4.30;;;4.60;1.00;;;;;;5031097;28;20857;-73
2023/10/17 03:19:27;;;;;;;7.90;4.60;;;4.60;1.00;;;;;;5032077;28;20469;-74
2023/10/17 03:21:58;;;;;;;12.30;4.70;;;4.70;1.00;;;;;;5033612;28;20492;-73
2023/10/17 03:24:44;;;;;;;10.80;4.77;;;4.70;1.00;;;;;;5018286;28;20430;-73
2023/10/17 03:27:26;;;;;;;7.27;4.40;;;4.70;1.00;;;;;;5042954;28;20454;-73
2023/10/17 03:29:51;;;;;;;7.97;4.00;;;4.70;1.00;;;;;;5035002;28;20431;-73
2023/10/17 03:32:17;;;;;;;12.60;4.40;;;4.70;1.00;;;;;;5052502;28;20477;-73
2023/10/17 03:34:52;;;;;;;7.40;4.53;;;4.80;1.00;;;;;;5038739;28;20175;-85
2023/10/17 03:39:53;;;;;;;4.40;3.90;;;4.80;1.00;;;;;;5040988;28;20410;-85
2023/10/17 03:48:49;;;;;;;11.20;4.10;;;4.90;1.00;;;;;;5036406;28;20476;-83
2023/10/17 03:51:21;;;;;;;7.77;3.80;;;4.90;1.00;;;;;;5037106;28;20434;-74
2023/10/17 03:53:48;;;;;;;11.57;3.67;;;4.90;1.00;;;;;;5037995;28;20419;-74
2023/10/17 03:56:23;;;;;;;7.43;3.93;;;4.90;1.00;;;;;;5045447;28;20418;-73
2023/10/17 04:01:22;;;;;;;8.53;4.20;;;5.00;1.00;;;;;;5055035;28;20426;-73
2023/10/17 04:03:53;;;;;;;5.80;3.70;;;5.00;1.00;;;;;;5050969;28;20417;-73
2023/10/17 04:09:54;;;;;;;10.93;4.60;;;5.00;1.00;;;;;;5038966;28;20960;-84
2023/10/17 04:12:49;;;;;;;8.63;4.20;;;5.00;1.00;;;;;;5035685;28;20433;-82
2023/10/17 04:15:19;;;;;;;11.87;4.13;;;5.10;1.00;;;;;;5032414;28;20437;-83
2023/10/17 04:17:59;;;;;;;10.20;4.23;;;5.10;1.00;;;;;;5045944;28;20410;-82
2023/10/17 04:21:12;;;;;;;5.00;3.60;;;5.10;1.00;;;;;;5041426;28;20401;-83
2023/10/17 04:24:07;;;;;;;5.50;3.83;;;5.10;1.00;;;;;;5038735;28;20420;-82
2023/10/17 04:26:34;;;;;;;7.47;3.50;;;5.10;1.00;;;;;;5031708;28;20513;-83
2023/10/17 04:29:11;;;;;;;8.00;4.20;;;5.20;1.00;;;;;;5030427;28;20404;-82
2023/10/17 04:32:26;;;;;;;6.37;4.10;;;5.10;1.00;;;;;;5039742;28;20445;-83
2023/10/17 04:35:01;;;;;;;9.17;3.90;;;5.20;1.00;;;;;;5034197;28;20438;-82
2023/10/17 04:43:55;;;;;;;12.70;4.63;;;5.30;1.00;;;;;;4993108;28;20447;-82
2023/10/17 04:47:27;;;;;;;9.40;4.10;;;5.30;1.00;;;;;;4976341;28;20444;-82
2023/10/17 04:49:58;;;;;;;11.60;4.50;;;5.30;1.00;;;;;;4992840;28;20428;-82
2023/10/17 04:52:30;;;;;;;3.90;3.60;;;5.20;1.00;;;;;;4976011;28;20435;-82
2023/10/17 04:55:22;;;;;;;8.87;3.87;;;5.20;1.00;;;;;;4998215;28;20430;-83
2023/10/17 05:01:11;;;;;;;14.10;4.00;;;5.30;1.00;;;;;;4993819;28;20904;-82
2023/10/17 05:03:50;;;;;;;6.00;3.00;;;5.20;1.00;;;;;;4989191;28;20436;-82
2023/10/17 06:18:31;;;;;;;4.87;3.30;;;5.20;1.00;;;;;;5038302;28;20434;-81
2023/10/17 06:21:19;;;;;;;10.93;4.33;;;5.30;1.00;;;;;;5034511;28;20422;-82
2023/10/17 06:30:26;;;;;;;8.80;4.30;;;5.50;1.00;;;;;;5033753;28;20438;-81
2023/10/17 06:33:19;;;;;;;6.20;4.17;;;5.50;1.00;;;;;;5024703;28;20466;-81
2023/10/17 06:35:46;;;;;;;11.00;4.00;;;5.60;1.00;;;;;;5023971;28;20464;-82
2023/10/17 06:38:16;;;;;;;18.63;5.73;;;6.30;1.00;;;;;;5028768;28;20509;-70
2023/10/17 06:40:53;;;;;;;4.87;3.10;;;5.80;1.00;;;;;;5030582;28;20542;-71
2023/10/17 06:43:27;;;;;;;8.90;3.13;;;5.80;1.00;;;;;;5035240;28;20824;-71
2023/10/17 06:45:55;;;;;;;9.07;3.50;;;5.90;1.00;;;;;;5034656;28;21014;-71
2023/10/17 06:48:31;;;;;;;15.77;4.17;;;6.00;1.00;;;;;;5033598;28;20487;-71
2023/10/17 06:53:47;;;;;;;11.63;4.13;;;6.20;1.00;;;;;;5034890;28;20778;-81
2023/10/17 06:56:17;;;;;;;11.67;3.83;;;6.30;1.00;;;;;;5026522;28;20988;-82
2023/10/17 06:59:35;;;;;;;14.97;5.53;;;6.40;1.00;;;;;;5028923;28;20962;-81
2023/10/17 07:02:16;;;;;;;9.07;4.30;;;6.50;1.00;;;;;;5028732;28;20425;-81
2023/10/17 07:05:36;;;;;;;11.70;4.73;;;6.60;1.00;;;;;;5029912;28;20423;-81
2023/10/17 07:08:02;;;;;;;21.13;6.03;;;6.80;1.00;;;;;;5020359;28;20485;-71
2023/10/17 07:13:39;;;;;;;18.57;4.67;;;6.90;1.00;;;;;;5027407;28;20414;-71
2023/10/17 07:16:16;;;;;;;19.23;4.87;;;7.10;1.00;;;;;;5026047;28;20459;-74
2023/10/17 07:18:47;;;;;;;10.20;4.83;;;7.20;1.00;;;;;;5024540;28;20736;-73
2023/10/17 07:21:22;;;;;;;6.13;3.20;;;7.20;1.00;;;;;;5030414;28;20430;-74
2023/10/17 07:24:16;;;;;;;4.63;2.70;;;7.30;1.00;;;;;;5035463;28;20790;-84
2023/10/17 07:27:11;;;;;;;13.33;4.00;;;7.50;1.00;;;;;;5027433;28;20439;-84
2023/10/17 07:29:58;;;;;;;3.17;2.90;;;7.60;1.00;;;;;;5029135;28;20985;-84
2023/10/17 07:32:47;;;;;;;9.77;3.70;;;7.80;1.00;;;;;;5042762;28;20426;-84
2023/10/17 07:35:30;;;;;;;3.27;2.43;;;7.90;1.00;;;;;;5027571;28;20423;-85
2023/10/17 07:37:56;;;;;;;11.40;3.63;;;8.00;1.00;;;;;;5034321;28;20421;-74
2023/10/17 07:40:32;;;;;;;3.67;2.83;;;8.10;1.00;;;;;;5029962;28;20427;-74
2023/10/17 07:43:02;;;;;;;15.40;3.73;;;8.20;1.00;;;;;;5033651;28;20171;-74
2023/10/17 07:45:41;;;;;;;9.67;3.17;;;8.40;1.00;;;;;;5023650;28;20433;-74
2023/10/17 07:48:22;;;;;;;7.30;3.10;;;8.40;1.00;;;;;;5025478;28;20461;-73
2023/10/17 07:50:54;;;;;;;6.50;2.50;;;8.50;1.00;;;;;;5036544;28;20987;-74
2023/10/17 07:53:21;;;;;;;6.37;2.50;;;8.60;1.00;;;;;;5032781;28;20897;-74
2023/10/17 07:55:52;;;;;;;2.73;2.47;;;8.70;1.00;;;;;;5028358;28;20418;-74
2023/10/17 07:58:38;;;;;;;4.70;2.60;;;8.80;1.00;;;;;;5029684;28;20435;-74
2023/10/17 08:01:19;;;;;;;5.70;2.10;;;8.90;1.00;;;;;;5022403;28;20435;-73
2023/10/17 08:03:54;;;;;;;4.33;2.20;;;9.00;1.00;;;;;;5026034;28;20452;-73
2023/10/17 08:06:31;;;;;;;4.33;2.07;;;9.10;1.00;;;;;;5027012;28;20776;-73
2023/10/17 08:08:59;;;;;;;2.33;1.83;;;9.20;1.00;;;;;;5050940;28;20481;-74
2023/10/17 08:11:31;;;;;;;5.07;1.97;;;9.30;1.00;;;;;;5043251;28;20430;-74
2023/10/17 08:14:06;;;;;;;4.93;2.40;;;9.40;1.00;;;;;;5019280;28;20411;-74
2023/10/17 08:16:32;;;;;;;3.17;2.20;;;9.50;1.00;;;;;;5032356;28;20844;-74
2023/10/17 08:19:22;;;;;;;15.93;4.10;;;9.60;1.00;;;;;;5030596;28;20519;-74
2023/10/17 08:27:13;;;;;;;5.27;2.30;;;10.00;1.00;;;;;;5035176;28;20841;-74
2023/10/17 08:29:48;;;;;;;3.37;2.00;;;10.10;1.00;;;;;;5041498;28;20458;-74
2023/10/17 08:34:59;;;;;;;10.00;2.43;;;10.20;1.00;;;;;;5039551;28;20937;-74
2023/10/17 08:37:39;;;;;;;8.97;3.10;;;10.20;1.00;;;;;;5022538;28;21176;-74
2023/10/17 08:42:52;;;;;;;1.80;1.70;;;10.40;1.00;;;;;;5033758;28;21397;-84
2023/10/17 08:45:54;;;;;;;4.47;2.20;;;10.50;1.00;;;;;;5033598;28;20965;-84
2023/10/17 08:48:23;;;;;;;4.00;1.80;;;10.40;1.00;;;;;;5032178;28;20469;-84
2023/10/17 08:51:07;;;;;;;5.80;2.27;;;10.40;1.00;;;;;;5031865;28;20954;-84
2023/10/17 08:53:46;;;;;;;4.73;2.00;;;10.50;1.00;;;;;;5031839;28;20440;-84
2023/10/17 08:56:29;;;;;;;3.43;1.77;;;10.70;1.00;;;;;;5031779;28;20832;-84
2023/10/17 08:59:04;;;;;;;3.43;1.93;;;10.80;1.00;;;;;;5029000;28;20930;-82
2023/10/17 09:02:43;;;;;;;2.10;1.93;;;10.80;1.00;;;;;;5036467;28;20410;-83
2023/10/17 09:05:18;;;;;;;2.90;2.00;;;11.00;1.00;;;;;;4992359;28;20437;-82
2023/10/17 09:08:22;;;;;;;3.37;2.60;;;11.10;1.00;;;;;;4992267;28;20464;-85
2023/10/17 09:10:51;;;;;;;3.00;1.97;;;11.10;1.00;;;;;;4992406;28;20456;-83
2023/10/17 09:16:42;;;;;;;6.10;1.90;;;11.20;1.00;;;;;;4993920;28;20543;-83
2023/10/17 09:19:11;;;;;;;8.30;2.67;;;11.20;1.00;;;;;;5000468;28;20894;-83
2023/10/17 09:21:42;;;;;;;5.50;2.47;;;11.30;1.00;;;;;;4968634;28;20451;-86
2023/10/17 09:24:53;;;;;;;7.30;2.70;;;11.20;1.00;;;;;;4997533;28;20452;-85
2023/10/17 09:27:59;;;;;;;3.47;2.40;;;11.20;1.00;;;;;;4994153;28;20514;-86
2023/10/17 09:30:30;;;;;;;3.17;1.87;;;;;;;;;;4991455;28;20429;-89
2023/10/17 09:32:55;;;;;;;2.77;2.00;;;11.20;1.00;;;;;;4989463;28;20798;-83
2023/10/17 09:35:22;;;;;;;2.23;2.03;;;11.20;1.00;;;;;;4975468;28;20433;-82
2023/10/17 09:41:18;;;;;;;35.83;6.33;;;11.40;1.00;;;;;;5028264;28;20384;-83
2023/10/17 09:44:04;;;;;;;9.80;3.03;;;11.50;1.00;;;;;;5020379;28;20410;-84
2023/10/17 09:46:31;;;;;;;7.93;2.70;;;11.50;1.00;;;;;;5030905;28;20476;-81
2023/10/17 09:49:06;;;;;;;1.83;1.57;;;11.60;1.00;;;;;;5045767;28;20454;-80
2023/10/17 09:51:42;;;;;;;2.77;1.80;;;11.60;1.00;;;;;;5034659;28;20431;-81
2023/10/17 09:54:12;;;;;;;7.40;2.57;;;11.70;1.00;;;;;;5023795;28;20446;-80
2023/10/17 09:56:53;;;;;;;3.30;2.23;;;11.80;1.00;;;;;;5030274;28;20398;-79
2023/10/17 09:59:37;;;;;;;11.00;3.20;;;11.80;1.00;;;;;;5022231;28;20410;-79
2023/10/17 10:02:08;;;;;;;9.53;3.17;;;11.80;1.00;;;;;;5032215;28;20944;-78
2023/10/17 10:04:40;;;;;;;2.90;1.87;;;11.90;1.00;;;;;;5032648;28;20405;-79
2023/10/17 10:07:21;;;;;;;3.20;2.33;;;11.90;1.00;;;;;;5028541;28;20451;-79
2023/10/17 10:09:58;;;;;;;3.13;2.40;;;11.90;1.00;;;;;;5038003;28;20514;-79
2023/10/17 10:12:24;;;;;;;9.33;2.40;;;12.00;1.00;;;;;;5036717;28;20421;-81
2023/10/17 10:14:57;;;;;;;2.70;2.20;;;12.10;1.00;;;;;;5035783;28;20525;-81
2023/10/17 10:17:45;;;;;;;2.87;2.20;;;12.20;1.00;;;;;;5049840;28;20256;-81
2023/10/17 10:20:13;;;;;;;6.43;2.20;;;12.40;1.00;;;;;;5021374;28;20506;-81
2023/10/17 10:22:50;;;;;;;4.90;2.20;;;12.50;1.00;;;;;;5024943;28;20434;-81
2023/10/17 10:26:04;;;;;;;7.70;2.50;;;12.40;1.00;;;;;;5046006;28;20374;-81
2023/10/17 10:28:41;;;;;;;4.60;2.43;;;12.60;1.00;;;;;;5024663;28;20463;-79
2023/10/17 10:31:29;;;;;;;4.20;2.13;;;12.70;1.00;;;;;;5037579;28;20455;-79
2023/10/17 10:34:12;;;;;;;8.10;2.20;;;12.70;1.00;;;;;;5036699;28;20419;-79
2023/10/17 10:36:42;;;;;;;7.10;1.93;;;12.70;1.00;;;;;;5025295;28;20431;-79
2023/10/17 10:40:10;;;;;;;2.40;1.93;;;12.70;1.00;;;;;;5046899;28;20426;-79
2023/10/17 10:43:22;;;;;;;3.23;2.70;;;12.80;1.00;;;;;;5028251;28;20426;-81
2023/10/17 10:45:56;;;;;;;4.03;2.27;;;12.80;1.00;;;;;;5035320;28;20428;-81
2023/10/17 10:48:58;;;;;;;3.77;2.43;;;12.80;1.00;;;;;;5016832;28;20481;-81
2023/10/17 10:52:04;;;;;;;4.23;2.50;;;12.90;1.00;;;;;;5027233;28;20431;-81
2023/10/17 10:55:05;;;;;;;3.03;2.07;;;12.90;1.00;;;;;;5030742;28;20425;-81
2023/10/17 10:57:33;;;;;;;3.67;2.10;;;12.80;1.00;;;;;;5031476;28;20433;-79
2023/10/17 11:00:00;;;;;;;4.30;2.20;;;12.80;1.00;;;;;;5033392;28;20426;-79
2023/10/17 11:02:36;;;;;;;2.20;2.10;;;12.90;1.00;;;;;;5029816;28;20445;-78
2023/10/17 11:05:05;;;;;;;4.30;2.23;;;12.80;1.00;;;;;;5035063;28;20877;-78
2023/10/17 11:08:01;;;;;;;2.20;1.83;;;12.90;1.00;;;;;;5038222;28;20534;-79
2023/10/17 11:10:27;;;;;;;2.37;1.70;;;12.90;1.00;;;;;;5028262;28;20426;-79
2023/10/17 11:12:58;;;;;;;4.87;2.43;;;13.00;1.00;;;;;;5035150;28;20454;-79
2023/10/17 11:15:27;;;;;;;11.63;2.17;;;13.10;1.00;;;;;;5033993;28;20421;-79
2023/10/17 11:18:00;;;;;;;3.83;2.07;;;13.10;1.00;;;;;;5035526;28;20440;-78
2023/10/17 11:20:27;;;;;;;5.17;2.23;;;12.90;1.00;;;;;;5022446;28;20409;-78
2023/10/17 11:22:59;;;;;;;2.70;2.10;;;12.90;1.00;;;;;;5023586;28;20431;-80
2023/10/17 11:25:45;;;;;;;1.90;1.80;;;12.90;1.00;;;;;;5046146;28;20901;-83
2023/10/17 11:28:16;;;;;;;5.90;2.20;;;12.60;1.00;;;;;;5019617;28;21026;-74
2023/10/17 11:30:48;;;;;;;12.20;2.73;;;12.50;1.00;;;;;;5032937;28;20397;-75
2023/10/17 11:33:18;;;;;;;9.20;2.83;;;12.40;1.00;;;;;;5031373;28;20428;-74
2023/10/17 11:35:49;;;;;;;13.50;2.83;;;12.30;1.00;;;;;;5029735;28;20918;-74
2023/10/17 11:38:34;;;;;;;10.57;2.87;;;12.10;1.00;;;;;;5032399;28;20431;-74
2023/10/17 11:41:04;;;;;;;4.63;2.50;;;12.00;1.00;;;;;;5026205;28;20957;-74
2023/10/17 11:43:34;;;;;;;6.13;2.77;;;11.80;1.00;;;;;;5027916;28;20425;-74
2023/10/17 11:46:12;;;;;;;6.87;2.07;;;11.80;1.00;;;;;;5021602;28;20529;-74
2023/10/17 11:48:43;;;;;;;9.40;3.00;;;11.70;1.00;;;;;;5028283;28;20523;-74
2023/10/17 11:51:13;;;;;;;2.17;1.60;;;11.80;1.00;;;;;;5033525;28;20430;-74
2023/10/17 11:54:05;;;;;;;10.77;3.13;;;11.80;1.00;;;;;;5031144;28;20414;-74
2023/10/17 11:56:40;;;;;;;6.93;2.20;;;11.90;1.00;;;;;;5029219;28;20468;-74
2023/10/17 11:59:23;;;;;;;7.50;2.60;;;12.00;1.00;;;;;;5035275;28;20417;-83
2023/10/17 12:02:02;;;;;;;3.90;1.93;;;12.10;1.00;;;;;;5051497;28;20914;-83
2023/10/17 12:04:35;;;;;;;2.87;2.00;;;12.30;1.00;;;;;;5042780;28;20842;-84
2023/10/17 12:07:19;;;;;;;1.97;1.77;;;12.40;1.00;;;;;;5024814;28;20762;-84
2023/10/17 12:10:08;;;;;;;6.73;2.67;;;12.50;1.00;;;;;;5026317;28;20431;-83
2023/10/17 12:13:06;;;;;;;2.73;2.00;;;12.70;1.00;;;;;;5020941;28;20434;-83
2023/10/17 12:15:32;;;;;;;16.63;3.57;;;12.70;1.00;;;;;;5040790;28;20859;-74
2023/10/17 12:17:57;;;;;;;3.83;2.37;;;12.60;1.00;;;;;;5045565;28;20517;-74
2023/10/17 12:20:28;;;;;;;2.10;1.90;;;12.40;1.00;;;;;;5041708;28;20239;-74
2023/10/17 12:23:02;;;;;;;3.07;1.90;;;12.50;1.00;;;;;;5035576;28;20185;-74
2023/10/17 12:25:29;;;;;;;3.13;1.70;;;12.50;1.00;;;;;;5048400;28;20903;-74
2023/10/17 12:27:56;;;;;;;5.23;1.70;;;12.60;1.00;;;;;;5040438;28;20548;-74
2023/10/17 12:30:24;;;;;;;5.70;2.20;;;12.70;1.00;;;;;;5054610;28;20851;-83
2023/10/17 12:33:23;;;;;;;3.47;2.00;;;12.70;1.00;;;;;;5043922;28;20394;-83
2023/10/17 12:36:05;;;;;;;6.07;2.27;;;12.80;1.00;;;;;;5036500;28;20423;-83
2023/10/17 12:38:40;;;;;;;5.57;2.10;;;12.90;1.00;;;;;;5035806;28;20511;-83
2023/10/17 12:41:35;;;;;;;7.33;2.63;;;13.00;1.00;;;;;;5032475;28;20493;-83
2023/10/17 12:44:05;;;;;;;4.30;2.20;;;13.10;1.00;;;;;;5050266;28;20372;-74
2023/10/17 12:46:35;;;;;;;5.60;2.40;;;13.20;1.00;;;;;;5037418;28;20456;-74
2023/10/17 12:49:01;;;;;;;9.60;2.83;;;13.30;1.00;;;;;;5035560;28;20516;-74
2023/10/17 12:51:27;;;;;;;3.03;1.83;;;13.30;1.00;;;;;;5035946;28;20752;-74
2023/10/17 12:53:54;;;;;;;7.83;2.40;;;13.40;1.00;;;;;;5042915;28;20173;-74
2023/10/17 12:56:20;;;;;;;12.33;3.37;;;13.40;1.00;;;;;;5047839;28;20431;-74
2023/10/17 12:58:47;;;;;;;6.60;2.00;;;13.50;1.00;;;;;;5046903;28;20405;-74
2023/10/17 13:01:13;;;;;;;15.10;3.80;;;13.50;1.00;;;;;;5041078;28;20412;-74
2023/10/17 13:03:40;;;;;;;6.23;2.47;;;13.60;1.00;;;;;;5034707;28;20422;-75
2023/10/17 13:06:07;;;;;;;8.80;2.73;;;13.60;1.00;;;;;;5036656;28;20330;-74
2023/10/17 13:08:32;;;;;;;3.70;1.90;;;13.50;1.00;;;;;;5043918;28;20461;-74
2023/10/17 13:10:59;;;;;;;1.63;1.50;;;13.60;1.00;;;;;;5037657;28;20430;-74
2023/10/17 13:13:30;;;;;;;5.17;2.10;;;13.60;1.00;;;;;;5034832;28;20418;-74
2023/10/17 13:15:57;;;;;;;2.60;1.80;;;13.70;1.00;;;;;;5040653;28;20898;-75
2023/10/17 13:18:24;;;;;;;2.97;1.70;;;13.70;1.00;;;;;;5037930;28;20412;-75
2023/10/17 13:20:54;;;;;;;3.33;1.90;;;13.70;1.00;;;;;;5048063;28;20429;-74
2023/10/17 13:23:20;;;;;;;4.10;2.20;;;13.80;1.00;;;;;;5036689;28;20399;-74
2023/10/17 13:25:46;;;;;;;4.57;2.13;;;13.80;1.00;;;;;;5039039;28;20476;-74
2023/10/17 13:28:12;;;;;;;1.80;1.70;;;13.80;1.00;;;;;;5031070;28;20485;-74
2023/10/17 13:30:58;;;;;;;4.07;1.90;;;14.00;1.00;;;;;;5044428;28;20477;-83
2023/10/17 13:33:28;;;;;;;6.20;1.80;;;14.00;1.00;;;;;;5040009;28;20404;-83
2023/10/17 13:36:10;;;;;;;4.30;1.60;;;14.00;1.00;;;;;;5037529;28;20459;-83
2023/10/17 13:38:40;;;;;;;1.53;1.37;;;14.00;1.00;;;;;;5022000;28;20440;-83
2023/10/17 13:41:23;;;;;;;1.40;1.30;;;14.10;1.00;;;;;;5037848;28;20409;-83
2023/10/17 13:44:22;;;;;;;2.20;1.47;;;14.10;1.00;;;;;;5048677;28;20454;-83
2023/10/17 13:46:53;;;;;;;2.40;1.40;;;14.20;1.00;;;;;;5046992;28;20405;-83
2023/10/17 13:49:40;;;;;;;3.40;1.57;;;14.20;1.00;;;;;;5043033;28;20417;-83
2023/10/17 13:52:24;;;;;;;2.07;1.60;;;14.20;1.00;;;;;;5041978;28;20464;-83
2023/10/17 13:55:09;;;;;;;2.43;1.80;;;14.20;1.00;;;;;;5035326;28;20407;-83
2023/10/17 13:58:11;;;;;;;1.33;1.23;;;14.30;1.00;;;;;;5024224;28;20454;-82
2023/10/17 14:00:43;;;;;;;6.83;1.53;;;14.30;1.00;;;;;;5054359;28;20873;-74
2023/10/17 14:03:12;;;;;;;5.50;1.40;;;14.30;1.00;;;;;;5040906;28;20915;-74
2023/10/17 14:05:49;;;;;;;1.43;1.33;;;14.30;1.00;;;;;;5029598;28;20422;-74
2023/10/17 14:08:16;;;;;;;1.67;1.13;;;14.30;1.00;;;;;;5048154;28;20446;-74
2023/10/17 14:10:46;;;;;;;4.33;1.87;;;14.30;1.00;;;;;;5039323;28;21022;-75
2023/10/17 14:13:18;;;;;;;2.60;1.57;;;14.40;1.00;;;;;;5035026;28;20405;-75
2023/10/17 14:15:44;;;;;;;3.03;1.63;;;14.40;1.00;;;;;;5035249;28;20941;-74
2023/10/17 14:18:13;;;;;;;1.90;1.80;;;14.50;1.00;;;;;;5034032;28;20473;-83
2023/10/17 14:21:40;;;;;;;2.37;1.67;;;14.40;1.00;;;;;;5033118;28;20501;-84
2023/10/17 14:24:10;;;;;;;1.67;1.30;;;14.40;1.00;;;;;;5034557;28;20447;-84
2023/10/17 14:26:48;;;;;;;1.83;1.33;;;14.40;1.00;;;;;;5052224;28;20413;-83
2023/10/17 14:29:16;;;;;;;2.37;1.63;;;14.40;1.00;;;;;;5020852;28;20828;-84
2023/10/17 14:32:06;;;;;;;3.50;1.17;;;14.30;1.00;;;;;;5027870;28;20921;-82
2023/10/17 14:35:04;;;;;;;3.37;1.10;;;14.30;1.00;;;;;;5043108;28;20411;-82
2023/10/17 14:37:41;;;;;;;1.50;1.40;;;14.30;1.00;;;;;;5038840;28;20424;-82
2023/10/17 14:40:23;;;;;;;1.07;1.07;;;14.30;1.00;;;;;;5020634;28;20415;-81
2023/10/17 14:43:23;;;;;;;1.93;1.50;;;14.30;1.00;;;;;;5033029;28;20412;-81
2023/10/17 14:46:22;;;;;;;3.53;1.40;;;14.30;1.00;;;;;;5039002;28;20499;-82
2023/10/17 14:49:12;;;;;;;7.37;1.90;;;14.20;1.00;;;;;;5038493;28;20929;-82
2023/10/17 14:51:47;;;;;;;1.80;1.37;;;14.20;1.00;;;;;;5045131;28;20483;-82
2023/10/17 14:54:17;;;;;;;1.63;1.30;;;14.20;1.00;;;;;;5030239;28;20397;-82
2023/10/17 14:56:53;;;;;;;3.23;1.53;;;14.20;1.00;;;;;;5035532;28;20911;-82
2023/10/17 14:59:43;;;;;;;2.20;1.40;;;14.20;1.00;;;;;;5024206;28;20426;-82
2023/10/17 15:02:18;;;;;;;5.40;1.50;;;14.20;1.00;;;;;;5027118;28;20920;-81
2023/10/17 15:04:59;;;;;;;0.90;0.90;;;14.10;1.00;;;;;;5028652;28;20480;-82
2023/10/17 15:07:29;;;;;;;2.10;1.33;;;14.10;1.00;;;;;;5030401;28;20520;-82
2023/10/17 15:09:55;;;;;;;10.73;1.90;;;14.10;1.00;;;;;;5040783;28;20431;-81
2023/10/17 15:12:48;;;;;;;10.00;2.27;;;14.00;1.00;;;;;;5026996;28;20885;-83
2023/10/17 15:15:14;;;;;;;3.60;1.33;;;14.00;1.00;;;;;;5030463;28;20185;-81
2023/10/17 15:17:42;;;;;;;2.43;1.40;;;14.00;1.00;;;;;;5045961;28;20409;-81
2023/10/17 15:20:11;;;;;;;5.03;1.33;;;13.90;1.00;;;;;;5029087;28;20173;-82
2023/10/17 15:23:10;;;;;;;8.07;1.93;;;13.90;1.00;;;;;;5032318;28;20409;-82
2023/10/17 15:25:41;;;;;;;1.93;1.43;;;13.80;1.00;;;;;;5024817;28;20442;-86
2023/10/17 15:28:11;;;;;;;1.60;1.50;;;13.70;1.00;;;;;;5025360;28;20955;-82
2023/10/17 15:31:02;;;;;;;4.27;1.30;;;13.80;1.00;;;;;;5022984;28;20479;-83
2023/10/17 15:33:36;;;;;;;7.93;2.20;;;14.20;1.00;;;;;;5034606;28;21082;-83
2023/10/17 15:36:11;;;;;;;5.90;1.60;;;14.50;1.00;;;;;;5031847;28;20412;-83
2023/10/17 15:42:47;;;;;;;1.27;1.10;;;15.40;1.00;;;;;;5022126;28;20811;-82
2023/10/17 15:45:19;;;;;;;2.83;1.17;;;15.60;1.00;;;;;;5033628;28;20398;-84
2023/10/17 15:47:51;;;;;;;1.50;0.97;;;15.40;1.00;;;;;;5041212;28;20440;-84
2023/10/17 15:50:17;;;;;;;7.70;2.13;;;15.20;1.00;;;;;;5041752;28;20430;-83
2023/10/17 15:53:10;;;;;;;1.77;1.07;;;14.80;1.00;;;;;;5040041;28;20389;-82
2023/10/17 15:55:57;;;;;;;16.53;3.40;;;14.50;1.00;;;;;;5030152;28;20434;-83
2023/10/17 15:58:31;;;;;;;1.23;1.13;;;14.30;1.00;;;;;;5033304;28;20455;-82
2023/10/17 16:01:22;;;;;;;4.07;1.70;;;14.10;1.00;;;;;;5019925;28;20445;-82
2023/10/17 16:04:17;;;;;;;7.63;2.10;;;13.40;1.00;;;;;;5031960;28;20545;-82
2023/10/17 16:06:53;;;;;;;1.53;1.40;;;13.00;1.00;;;;;;5037797;28;20768;-82
2023/10/17 16:09:29;;;;;;;5.60;1.87;;;12.70;1.00;;;;;;5024324;28;20410;-82
2023/10/17 16:15:16;;;;;;;4.43;1.33;;;12.10;1.00;;;;;;5025917;28;20548;-82
2023/10/17 16:27:48;;;;;;;3.53;1.57;;;10.90;1.00;;;;;;5030283;28;20479;-82
2023/10/17 16:33:41;;;;;;;1.93;1.27;;;10.40;1.00;;;;;;5026759;28;20422;-81
2023/10/17 16:36:52;;;;;;;18.73;3.77;;;10.20;1.00;;;;;;5031077;28;20413;-81
2023/10/17 16:39:40;;;;;;;2.20;1.60;;;10.00;1.00;;;;;;5031310;28;20488;-81
2023/10/17 16:42:23;;;;;;;5.60;1.77;;;9.70;1.00;;;;;;5038154;28;20433;-75
2023/10/17 16:44:59;;;;;;;2.57;1.63;;;9.60;1.00;;;;;;5031347;28;20425;-76
2023/10/17 16:47:25;;;;;;;12.33;2.40;;;9.50;1.00;;;;;;5034266;28;20910;-76
2023/10/17 16:50:15;;;;;;;2.80;1.70;;;9.30;1.00;;;;;;5029636;28;20453;-84
2023/10/17 16:52:41;;;;;;;2.77;1.63;;;9.10;1.00;;;;;;5032218;28;20470;-84
2023/10/17 16:55:50;;;;;;;2.10;1.30;;;8.90;1.00;;;;;;5026187;28;20442;-84
2023/10/17 16:58:37;;;;;;;9.60;1.83;;;8.70;1.00;;;;;;5017150;28;20875;-83